createdAt,value
2022-09-24T00:01:22.013Z,12.05
2022-09-24T00:03:57.329Z,10.52
2022-09-24T00:06:24.265Z,10.52
2022-09-24T00:08:55.005Z,9.93
2022-09-24T00:11:22.929Z,10.43
2022-09-24T00:13:51.756Z,9.40
2022-09-24T00:16:20.592Z,10.57
2022-09-24T00:18:47.080Z,12.05
2022-09-24T00:21:25.504Z,10.20
2022-09-24T00:23:58.154Z,10.35
2022-09-24T00:26:43.906Z,9.95
2022-09-24T00:31:38.231Z,10.05
2022-09-24T00:34:05.358Z,11.23
2022-09-24T00:36:31.842Z,10.23
2022-09-24T00:39:00.297Z,10.07
2022-09-24T00:41:31.535Z,9.65
2022-09-24T00:43:58.327Z,10.65
2022-09-24T00:46:36.634Z,9.85
2022-09-24T00:49:12.867Z,10.50
2022-09-24T00:51:41.404Z,9.88
2022-09-24T00:54:28.892Z,10.48
2022-09-24T00:56:58.884Z,10.43
2022-09-24T00:59:27.374Z,15.55
2022-09-24T01:01:59.394Z,16.52
2022-09-24T01:04:28.409Z,21.02
2022-09-24T01:06:56.616Z,20.33
2022-09-24T01:09:25.945Z,20.17
2022-09-24T01:11:55.413Z,20.65
2022-09-24T01:14:32.985Z,21.92
2022-09-24T01:17:20.935Z,20.48
2022-09-24T01:20:05.839Z,21.27
2022-09-24T01:22:51.195Z,20.53
2022-09-24T01:25:29.756Z,19.73
2022-09-24T01:28:13.639Z,15.93
2022-09-24T01:30:42.609Z,15.35
2022-09-24T01:33:16.161Z,14.45
2022-09-24T01:36:08.267Z,16.17
2022-09-24T01:38:42.045Z,15.90
2022-09-24T01:41:12.163Z,18.63
2022-09-24T01:43:39.188Z,19.17
2022-09-24T01:46:07.240Z,18.77
2022-09-24T01:48:37.368Z,21.23
2022-09-24T01:51:28.675Z,21.55
2022-09-24T01:54:03.890Z,24.10
2022-09-24T01:56:33.414Z,23.35
2022-09-24T01:59:06.372Z,22.80
2022-09-24T02:01:40.583Z,17.38
2022-09-24T02:04:15.563Z,18.05
2022-09-24T02:06:54.778Z,17.75
2022-09-24T02:09:33.340Z,17.25
2022-09-24T02:12:07.143Z,18.10
2022-09-24T02:14:40.037Z,18.67
2022-09-24T02:17:07.065Z,20.55
2022-09-24T02:19:37.642Z,21.98
2022-09-24T02:22:09.408Z,20.55
2022-09-24T02:24:52.371Z,20.48
2022-09-24T02:27:19.503Z,19.48
2022-09-24T02:29:46.248Z,20.02
2022-09-24T02:32:16.388Z,19.85
2022-09-24T02:34:51.983Z,19.17
2022-09-24T02:37:20.318Z,20.92
2022-09-24T02:39:46.778Z,21.52
2022-09-24T02:42:14.805Z,21.95
2022-09-24T02:44:41.452Z,22.05
2022-09-24T02:47:08.183Z,23.30
2022-09-24T02:49:34.688Z,23.58
2022-09-24T02:52:01.635Z,22.45
2022-09-24T02:54:28.244Z,21.08
2022-09-24T02:56:55.111Z,20.83
2022-09-24T02:59:21.620Z,22.15
2022-09-24T03:01:48.771Z,21.10
2022-09-24T03:04:16.061Z,21.90
2022-09-24T03:06:43.121Z,23.45
2022-09-24T03:09:12.914Z,22.38
2022-09-24T03:11:40.073Z,21.55
2022-09-24T03:14:06.748Z,22.60
2022-09-24T03:16:33.818Z,24.10
2022-09-24T03:19:00.358Z,22.40
2022-09-24T03:21:26.940Z,22.45
2022-09-24T03:23:53.682Z,21.40
2022-09-24T03:26:20.289Z,21.90
2022-09-24T03:28:46.754Z,21.55
2022-09-24T03:31:14.002Z,21.48
2022-09-24T03:33:46.188Z,22.88
2022-09-24T03:36:24.447Z,21.55
2022-09-24T03:38:56.409Z,21.70
2022-09-24T03:41:27.690Z,22.67
2022-09-24T03:43:54.690Z,23.50
2022-09-24T03:46:21.997Z,24.02
2022-09-24T03:48:49.111Z,23.48
2022-09-24T03:51:18.774Z,23.45
2022-09-24T03:53:46.245Z,24.88
2022-09-24T03:56:12.846Z,22.95
2022-09-24T03:58:40.417Z,23.55
2022-09-24T04:01:08.343Z,25.55
2022-09-24T04:03:36.245Z,24.70
2022-09-24T04:06:03.791Z,25.08
2022-09-24T04:08:31.545Z,26.90
2022-09-24T04:10:58.186Z,25.95
2022-09-24T04:13:24.695Z,25.55
2022-09-24T04:15:51.571Z,25.02
2022-09-24T04:18:19.005Z,24.55
2022-09-24T04:20:45.585Z,24.58
2022-09-24T04:23:12.370Z,25.60
2022-09-24T04:25:40.637Z,25.00
2022-09-24T04:28:08.600Z,23.67
2022-09-24T04:30:36.189Z,23.90
2022-09-24T04:33:03.071Z,24.63
2022-09-24T04:35:32.066Z,25.08
2022-09-24T04:37:59.542Z,24.20
2022-09-24T04:40:26.894Z,23.58
2022-09-24T04:42:53.487Z,25.00
2022-09-24T04:45:20.880Z,24.90
2022-09-24T04:47:52.555Z,25.58
2022-09-24T04:50:20.733Z,24.77
2022-09-24T04:52:47.482Z,26.63
2022-09-24T04:55:14.751Z,24.48
2022-09-24T04:57:41.419Z,41.60
2022-09-24T05:00:14.665Z,42.53
2022-09-24T05:02:42.683Z,38.50
2022-09-24T05:05:11.317Z,38.47
2022-09-24T05:07:38.142Z,39.58
2022-09-24T05:10:06.149Z,35.45
2022-09-24T05:12:34.013Z,31.85
2022-09-24T05:15:01.048Z,30.00
2022-09-24T05:17:27.579Z,29.85
2022-09-24T05:19:54.069Z,29.25
2022-09-24T05:22:20.907Z,30.95
2022-09-24T05:24:47.346Z,30.98
2022-09-24T05:27:13.804Z,30.15
2022-09-24T05:29:43.369Z,29.10
2022-09-24T05:32:12.650Z,29.25
2022-09-24T05:34:39.169Z,34.13
2022-09-24T05:37:05.848Z,30.33
2022-09-24T05:39:34.228Z,29.23
2022-09-24T05:42:03.633Z,30.13
2022-09-24T05:44:31.411Z,30.13
2022-09-24T05:46:58.401Z,29.25
2022-09-24T05:49:25.182Z,29.23
2022-09-24T05:51:51.749Z,29.40
2022-09-24T05:54:18.526Z,29.02
2022-09-24T05:56:45.629Z,29.75
2022-09-24T05:59:12.450Z,28.17
2022-09-24T06:01:39.143Z,28.15
2022-09-24T06:04:08.816Z,29.60
2022-09-24T06:06:36.343Z,27.80
2022-09-24T06:09:03.392Z,27.08
2022-09-24T06:11:39.717Z,28.65
2022-09-24T06:14:06.894Z,30.88
2022-09-24T06:16:34.345Z,31.80
2022-09-24T06:19:01.248Z,34.67
2022-09-24T06:21:27.801Z,32.35
2022-09-24T06:23:54.537Z,29.58
2022-09-24T06:26:21.325Z,28.58
2022-09-24T06:28:47.892Z,29.23
2022-09-24T06:31:14.463Z,27.80
2022-09-24T06:33:40.997Z,30.85
2022-09-24T06:36:07.771Z,30.60
2022-09-24T06:38:35.333Z,32.47
2022-09-24T06:41:04.618Z,29.48
2022-09-24T06:43:32.359Z,31.55
2022-09-24T06:45:59.794Z,42.25
2022-09-24T06:48:27.636Z,47.08
2022-09-24T06:50:54.808Z,40.47
2022-09-24T06:53:21.398Z,29.40
2022-09-24T06:55:48.920Z,25.85
2022-09-24T06:58:20.018Z,27.65
2022-09-24T07:00:58.935Z,28.75
2022-09-24T07:03:27.165Z,25.67
2022-09-24T07:05:54.198Z,25.80
2022-09-24T07:08:21.354Z,24.00
2022-09-24T07:10:54.776Z,21.95
2022-09-24T07:13:21.555Z,21.77
2022-09-24T07:15:50.402Z,22.17
2022-09-24T07:18:17.660Z,22.65
2022-09-24T07:20:44.291Z,22.67
2022-09-24T07:23:12.114Z,25.33
2022-09-24T07:25:39.338Z,26.98
2022-09-24T07:28:12.058Z,24.60
2022-09-24T07:30:39.473Z,23.95
2022-09-24T07:33:07.456Z,20.27
2022-09-24T07:35:36.864Z,23.83
2022-09-24T07:38:06.554Z,23.35
2022-09-24T07:40:33.569Z,22.45
2022-09-24T07:43:00.696Z,21.65
2022-09-24T07:45:29.737Z,21.77
2022-09-24T07:48:01.411Z,21.38
2022-09-24T07:50:29.875Z,20.55
2022-09-24T07:52:56.860Z,21.13
2022-09-24T07:55:24.233Z,18.95
2022-09-24T07:57:53.033Z,20.40
2022-09-24T08:00:21.197Z,17.75
2022-09-24T08:02:48.406Z,16.92
2022-09-24T08:05:16.567Z,18.75
2022-09-24T08:07:43.152Z,19.67
2022-09-24T08:10:10.040Z,20.73
2022-09-24T08:12:36.492Z,21.95
2022-09-24T08:15:03.106Z,20.70
2022-09-24T08:17:29.554Z,20.08
2022-09-24T08:19:56.965Z,19.50
2022-09-24T08:22:25.001Z,21.83
2022-09-24T08:24:51.591Z,15.95
2022-09-24T08:27:19.270Z,19.75
2022-09-24T08:29:46.047Z,19.27
2022-09-24T08:32:13.328Z,17.80
2022-09-24T08:34:40.652Z,19.45
2022-09-24T08:37:08.086Z,19.30
2022-09-24T08:39:35.247Z,17.83
2022-09-24T08:42:04.507Z,18.90
2022-09-24T08:44:56.803Z,22.10
2022-09-24T08:47:43.377Z,16.45
2022-09-24T08:50:17.382Z,17.92
2022-09-24T08:52:43.808Z,18.90
2022-09-24T08:55:22.486Z,18.50
2022-09-24T08:58:08.947Z,18.80
2022-09-24T09:00:43.936Z,20.77
2022-09-24T09:03:22.576Z,17.30
2022-09-24T09:05:56.963Z,14.68
2022-09-24T09:09:06.438Z,16.00
2022-09-24T09:11:36.904Z,17.73
2022-09-24T09:14:11.898Z,13.35
2022-09-24T09:16:53.595Z,9.82
2022-09-24T09:19:27.367Z,15.40
2022-09-24T09:22:08.140Z,12.65
2022-09-24T09:24:49.857Z,14.85
2022-09-24T09:27:18.162Z,14.48
2022-09-24T09:29:50.586Z,14.32
2022-09-24T09:32:34.975Z,12.07
2022-09-24T09:35:14.097Z,11.95
2022-09-24T09:38:00.710Z,13.75
2022-09-24T09:40:39.709Z,13.18
2022-09-24T09:43:11.644Z,7.63
2022-09-24T09:45:44.988Z,10.93
2022-09-24T09:48:14.099Z,5.40
2022-09-24T09:50:52.084Z,7.45
2022-09-24T09:53:23.511Z,11.05
2022-09-24T09:56:01.289Z,10.48
2022-09-24T09:58:31.116Z,8.75
2022-09-24T10:01:31.825Z,8.23
2022-09-24T10:04:03.136Z,6.22
2022-09-24T10:06:32.094Z,7.72
2022-09-24T10:09:22.331Z,8.55
2022-09-24T10:11:48.930Z,7.15
2022-09-24T10:14:19.192Z,6.95
2022-09-24T10:16:52.403Z,4.10
2022-09-24T10:19:24.845Z,5.85
2022-09-24T10:21:53.564Z,6.28
2022-09-24T10:24:25.363Z,7.68
2022-09-24T10:26:53.168Z,8.20
2022-09-24T10:29:42.715Z,8.50
2022-09-24T10:32:21.702Z,9.02
2022-09-24T10:35:18.792Z,8.40
2022-09-24T10:37:57.036Z,9.95
2022-09-24T10:40:30.966Z,10.35
2022-09-24T10:43:02.341Z,11.55
2022-09-24T10:45:44.104Z,11.77
2022-09-24T10:48:19.681Z,12.73
2022-09-24T10:50:51.915Z,11.85
2022-09-24T10:53:28.775Z,12.60
2022-09-24T10:56:06.335Z,12.73
2022-09-24T10:59:09.515Z,11.73
2022-09-24T11:01:56.243Z,11.57
2022-09-24T11:04:28.805Z,13.68
2022-09-24T11:07:42.763Z,11.68
2022-09-24T11:10:18.315Z,10.10
2022-09-24T11:13:10.620Z,13.25
2022-09-24T11:15:46.777Z,12.20
2022-09-24T11:18:36.564Z,12.93
2022-09-24T11:21:02.923Z,13.82
2022-09-24T11:23:53.925Z,14.05
2022-09-24T11:26:49.760Z,13.82
2022-09-24T11:29:25.191Z,13.07
2022-09-24T11:32:10.110Z,13.00
2022-09-24T11:34:37.778Z,14.40
2022-09-24T11:37:13.032Z,14.52
2022-09-24T11:42:43.748Z,13.55
2022-09-24T11:45:34.162Z,15.48
2022-09-24T11:48:22.332Z,14.40
2022-09-24T11:51:01.930Z,16.20
2022-09-24T11:53:46.285Z,16.83
2022-09-24T11:56:47.206Z,18.58
2022-09-24T11:59:19.367Z,17.70
2022-09-24T12:01:56.292Z,16.80
2022-09-24T12:04:44.412Z,12.55
2022-09-24T12:07:15.886Z,12.93
2022-09-24T12:10:29.696Z,12.40
2022-09-24T12:13:18.583Z,12.70
2022-09-24T12:16:11.160Z,11.27
2022-09-24T12:18:49.710Z,11.30
2022-09-24T12:21:28.055Z,10.65
2022-09-24T12:24:03.029Z,11.25
2022-09-24T12:30:00.860Z,11.57
2022-09-24T12:32:54.684Z,13.32
2022-09-24T12:35:33.297Z,11.70
2022-09-24T12:38:24.012Z,11.13
2022-09-24T12:41:18.546Z,12.18
2022-09-24T12:43:50.219Z,11.50
2022-09-24T12:46:20.779Z,11.20
2022-09-24T12:48:49.764Z,11.60
2022-09-24T12:51:22.118Z,12.77
2022-09-24T12:53:58.788Z,11.63
2022-09-24T12:56:30.836Z,11.70
2022-09-24T12:58:58.092Z,12.43
2022-09-24T13:01:24.685Z,11.45
2022-09-24T13:04:13.935Z,12.00
2022-09-24T13:06:42.427Z,12.90
2022-09-24T13:09:37.517Z,12.95
2022-09-24T13:12:06.341Z,12.00
2022-09-24T13:14:34.292Z,11.27
2022-09-24T13:17:05.644Z,10.75
2022-09-24T13:19:41.045Z,10.68
2022-09-24T13:22:25.281Z,11.07
2022-09-24T13:25:05.304Z,10.70
2022-09-24T13:27:31.679Z,12.90
2022-09-24T13:30:19.218Z,11.05
2022-09-24T13:33:15.278Z,11.32
2022-09-24T13:38:21.798Z,11.13
2022-09-24T13:41:03.749Z,11.65
2022-09-24T13:43:37.341Z,10.30
2022-09-24T13:46:08.303Z,11.65
2022-09-24T13:48:45.254Z,10.27
2022-09-24T13:51:14.168Z,10.85
2022-09-24T13:53:49.570Z,9.90
2022-09-24T13:56:19.167Z,10.98
2022-09-24T13:58:46.936Z,9.85
2022-09-24T14:01:26.920Z,10.23
2022-09-24T14:04:01.202Z,10.00
2022-09-24T14:06:37.106Z,11.40
2022-09-24T14:09:24.817Z,10.00
2022-09-24T14:11:56.369Z,10.05
2022-09-24T14:14:26.616Z,10.02
2022-09-24T14:16:56.538Z,10.10
2022-09-24T14:19:23.787Z,10.48
2022-09-24T14:21:57.764Z,9.85
2022-09-24T14:24:32.816Z,11.55
2022-09-24T14:27:09.517Z,11.00
2022-09-24T14:29:48.128Z,10.95
2022-09-24T14:32:34.162Z,11.05
2022-09-24T14:35:05.333Z,10.95
2022-09-24T14:37:35.600Z,10.60
2022-09-24T14:40:07.504Z,11.73
2022-09-24T14:42:47.822Z,11.50
2022-09-24T14:45:21.265Z,11.05
2022-09-24T14:47:48.313Z,10.52
2022-09-24T14:50:37.369Z,10.68
2022-09-24T14:53:13.988Z,11.30
2022-09-24T14:55:43.355Z,11.43
2022-09-24T14:58:28.165Z,10.82
2022-09-24T15:00:58.177Z,10.63
2022-09-24T15:03:37.749Z,11.50
2022-09-24T15:06:07.823Z,9.65
2022-09-24T15:08:34.371Z,9.80
2022-09-24T15:11:03.701Z,9.52
2022-09-24T15:13:36.129Z,11.63
2022-09-24T15:16:27.472Z,9.35
2022-09-24T15:19:17.444Z,10.73
2022-09-24T15:21:45.087Z,10.52
2022-09-24T15:24:12.044Z,11.40
2022-09-24T15:26:41.904Z,12.32
2022-09-24T15:29:17.352Z,11.45
2022-09-24T15:31:43.884Z,10.13
2022-09-24T15:34:10.472Z,11.23
2022-09-24T15:36:37.891Z,10.90
2022-09-24T15:39:04.874Z,10.07
2022-09-24T15:41:31.327Z,11.73
2022-09-24T15:43:59.086Z,11.43
2022-09-24T15:46:26.142Z,12.18
2022-09-24T15:48:52.787Z,12.05
2022-09-24T15:51:22.230Z,10.40
2022-09-24T15:53:50.075Z,11.23
2022-09-24T15:56:16.854Z,10.57
2022-09-24T15:58:43.371Z,10.32
2022-09-24T16:01:15.794Z,9.98
2022-09-24T16:03:43.458Z,9.85
2022-09-24T16:06:12.122Z,9.30
2022-09-24T16:08:38.712Z,10.50
2022-09-24T16:11:08.884Z,10.52
2022-09-24T16:13:35.764Z,10.25
2022-09-24T16:16:05.471Z,11.90
2022-09-24T16:18:32.175Z,11.52
2022-09-24T16:20:58.640Z,10.45
2022-09-24T16:23:25.204Z,11.65
2022-09-24T16:25:56.623Z,12.43
2022-09-24T16:28:24.274Z,11.95
2022-09-24T16:30:51.046Z,12.43
2022-09-24T16:33:17.647Z,12.95
2022-09-24T16:35:44.128Z,11.48
2022-09-24T16:38:10.711Z,12.75
2022-09-24T16:40:37.640Z,12.63
2022-09-24T16:43:04.586Z,11.80
2022-09-24T16:45:31.841Z,12.60
2022-09-24T16:47:58.424Z,12.23
2022-09-24T16:50:25.405Z,13.15
2022-09-24T16:52:54.827Z,13.50
2022-09-24T16:55:25.603Z,12.88
2022-09-24T16:57:52.668Z,12.60
2022-09-24T17:00:20.039Z,14.85
2022-09-24T17:02:46.635Z,13.90
2022-09-24T17:05:13.214Z,13.15
2022-09-24T17:07:39.760Z,12.82
2022-09-24T17:10:13.144Z,13.40
2022-09-24T17:12:50.739Z,13.38
2022-09-24T17:15:20.532Z,13.23
2022-09-24T17:17:50.286Z,12.63
2022-09-24T17:20:17.857Z,13.77
2022-09-24T17:22:44.635Z,13.27
2022-09-24T17:25:11.205Z,13.40
2022-09-24T17:27:37.745Z,13.38
2022-09-24T17:30:05.352Z,14.43
2022-09-24T17:32:32.278Z,14.70
2022-09-24T17:34:59.023Z,15.85
2022-09-24T17:37:27.239Z,15.60
2022-09-24T17:39:53.717Z,15.63
2022-09-24T17:42:20.169Z,14.80
2022-09-24T17:44:46.681Z,14.52
2022-09-24T17:47:13.158Z,14.40
2022-09-24T17:49:39.658Z,14.45
2022-09-24T17:52:06.345Z,15.38
2022-09-24T17:54:32.803Z,15.68
2022-09-24T17:56:59.533Z,14.82
2022-09-24T17:59:27.127Z,13.25
2022-09-24T18:01:54.083Z,13.57
2022-09-24T18:04:21.464Z,15.38
2022-09-24T18:06:49.419Z,14.27
2022-09-24T18:09:17.153Z,13.82
2022-09-24T18:11:48.860Z,13.63
2022-09-24T18:14:18.469Z,12.45
2022-09-24T18:16:45.207Z,12.98
2022-09-24T18:19:13.394Z,13.40
2022-09-24T18:21:39.963Z,14.00
2022-09-24T18:24:07.149Z,14.02
2022-09-24T18:26:35.671Z,14.05
2022-09-24T18:29:05.895Z,13.32
2022-09-24T18:31:33.129Z,14.27
2022-09-24T18:34:05.815Z,13.70
2022-09-24T18:36:37.942Z,14.18
2022-09-24T18:39:06.781Z,13.25
2022-09-24T18:41:34.707Z,13.93
2022-09-24T18:44:01.416Z,15.82
2022-09-24T18:46:30.253Z,14.55
2022-09-24T18:48:58.100Z,15.45
2022-09-24T18:51:37.550Z,15.30
2022-09-24T18:54:12.134Z,17.23
2022-09-24T18:56:38.785Z,14.77
2022-09-24T18:59:10.278Z,13.55
2022-09-24T19:01:38.249Z,14.10
2022-09-24T19:04:05.215Z,14.57
2022-09-24T19:06:34.571Z,13.07
2022-09-24T19:09:01.097Z,13.45
2022-09-24T19:11:28.093Z,14.27
2022-09-24T19:13:54.668Z,15.50
2022-09-24T19:16:25.651Z,14.00
2022-09-24T19:18:53.572Z,14.38
2022-09-24T19:21:22.962Z,13.80
2022-09-24T19:23:51.559Z,13.93
2022-09-24T19:26:26.752Z,15.93
2022-09-24T19:28:53.990Z,14.68
2022-09-24T19:31:30.026Z,14.68
2022-09-24T19:33:57.299Z,15.13
2022-09-24T19:36:24.248Z,15.40
2022-09-24T19:38:51.887Z,16.25
2022-09-24T19:41:27.018Z,15.23
2022-09-24T19:44:02.113Z,15.15
2022-09-24T19:46:32.444Z,14.40
2022-09-24T19:48:59.108Z,14.60
2022-09-24T19:51:31.015Z,15.38
2022-09-24T19:54:06.707Z,15.00
2022-09-24T19:56:33.503Z,16.08
2022-09-24T19:59:01.350Z,15.65
2022-09-24T20:01:30.539Z,17.52
2022-09-24T20:03:59.527Z,16.50
2022-09-24T20:06:29.056Z,15.15
2022-09-24T20:08:57.087Z,15.90
2022-09-24T20:11:24.753Z,16.00
2022-09-24T20:13:53.685Z,16.65
2022-09-24T20:16:22.670Z,14.82
2022-09-24T20:18:51.110Z,15.13
2022-09-24T20:21:19.057Z,14.88
2022-09-24T20:23:47.067Z,15.32
2022-09-24T20:26:34.163Z,14.93
2022-09-24T20:29:02.037Z,16.10
2022-09-24T20:31:29.101Z,15.05
2022-09-24T20:33:55.641Z,16.00
2022-09-24T20:36:24.657Z,16.23
2022-09-24T20:38:52.071Z,14.70
2022-09-24T20:41:24.597Z,15.50
2022-09-24T20:43:55.111Z,16.45
2022-09-24T20:46:28.817Z,14.10
2022-09-24T20:49:00.065Z,14.68
2022-09-24T20:51:33.267Z,13.65
2022-09-24T20:54:00.146Z,13.68
2022-09-24T20:56:27.416Z,14.02
2022-09-24T20:58:54.330Z,15.10
2022-09-24T21:01:22.323Z,14.15
2022-09-24T21:03:51.851Z,15.88
2022-09-24T21:06:22.888Z,14.50
2022-09-24T21:08:49.643Z,14.85
2022-09-24T21:11:22.071Z,14.48
2022-09-24T21:13:50.774Z,13.27
2022-09-24T21:16:22.627Z,14.13
2022-09-24T21:18:50.801Z,14.05
2022-09-24T21:21:22.517Z,14.55
2022-09-24T21:23:51.495Z,13.00
2022-09-24T21:26:21.423Z,13.95
2022-09-24T21:28:50.580Z,14.75
2022-09-24T21:31:21.041Z,14.68
2022-09-24T21:33:49.576Z,15.52
2022-09-24T21:36:19.364Z,13.70
2022-09-24T21:39:03.972Z,14.88
2022-09-24T21:41:35.833Z,13.98
2022-09-24T21:44:03.154Z,12.70
2022-09-24T21:46:33.386Z,14.95
2022-09-24T21:49:01.133Z,13.50
2022-09-24T21:51:30.181Z,13.80
2022-09-24T21:54:04.404Z,13.80
2022-09-24T21:56:33.001Z,12.43
2022-09-24T21:58:59.843Z,13.82
2022-09-24T22:01:33.848Z,13.43
2022-09-24T22:04:07.312Z,12.02
2022-09-24T22:06:33.827Z,12.00
2022-09-24T22:09:06.501Z,11.57
2022-09-24T22:11:34.495Z,11.10
2022-09-24T22:14:02.379Z,11.18
2022-09-24T22:16:30.733Z,10.82
2022-09-24T22:18:57.379Z,10.95
2022-09-24T22:21:23.885Z,10.73
2022-09-24T22:23:50.488Z,10.93
2022-09-24T22:26:18.648Z,11.88
2022-09-24T22:28:45.526Z,10.57
2022-09-24T22:31:15.551Z,11.10
2022-09-24T22:34:01.450Z,10.90
2022-09-24T22:36:29.484Z,10.00
2022-09-24T22:38:57.330Z,10.43
2022-09-24T22:41:24.521Z,10.68
2022-09-24T22:43:52.208Z,10.15
2022-09-24T22:46:19.995Z,8.82
2022-09-24T22:48:50.142Z,11.63
2022-09-24T22:51:16.637Z,10.65
2022-09-24T22:53:43.133Z,11.70
2022-09-24T22:56:18.615Z,11.05
2022-09-24T22:58:54.661Z,11.60
2022-09-24T23:01:24.335Z,11.63
2022-09-24T23:03:52.677Z,13.07
2022-09-24T23:06:20.977Z,12.60
2022-09-24T23:08:48.213Z,11.80
2022-09-24T23:11:15.731Z,11.45
2022-09-24T23:13:44.354Z,10.43
2022-09-24T23:16:12.228Z,9.77
2022-09-24T23:18:40.269Z,10.25
2022-09-24T23:21:09.027Z,9.55
2022-09-24T23:23:36.103Z,8.30
2022-09-24T23:26:16.198Z,8.77
2022-09-24T23:28:45.919Z,11.77
2022-09-24T23:31:14.777Z,8.60
2022-09-24T23:33:42.621Z,8.63
2022-09-24T23:36:11.906Z,8.55
2022-09-24T23:38:40.428Z,8.13
2022-09-24T23:41:08.819Z,7.32
2022-09-24T23:43:35.997Z,7.60
2022-09-24T23:46:03.810Z,7.63
2022-09-24T23:48:30.886Z,6.75
2022-09-24T23:50:58.411Z,6.82
2022-09-24T23:53:25.460Z,6.22
2022-09-24T23:55:53.914Z,6.25
2022-09-24T23:58:22.013Z,5.28
